Time;durP1;ratioP1;P1;durP2;ratioP2;P2;SDS_P1;SDS_P2;PMS_P1;PMS_P2;Temp;Humidity;BMP_temperature;BMP_pressure;BME280_temperature;BME280_humidity;BME280_pressure;Samples;Min_cycle;Max_cycle;Signal;HPM_P1;HPM_P2
2022/03/05 00:01:01;;;;;;;6.32;2.83;;;;;;;;;;5114213;27;20023;-59
2022/03/05 00:03:26;;;;;;;3.22;2.30;;;;;;;;;;5097230;28;20388;-59
2022/03/05 00:05:51;;;;;;;4.07;3.13;;;;;;;;;;5111841;28;20106;-59
2022/03/05 00:08:16;;;;;;;4.30;2.58;;;;;;;;;;5109884;28;20153;-59
2022/03/05 00:10:41;;;;;;;8.05;2.85;;;;;;;;;;5097711;28;20032;-59
2022/03/05 00:13:07;;;;;;;5.93;3.15;;;;;;;;;;5095275;28;20456;-59
2022/03/05 00:15:32;;;;;;;9.85;3.17;;;;;;;;;;5108455;28;20038;-59
2022/03/05 00:17:57;;;;;;;3.88;2.60;;;;;;;;;;5114307;28;20036;-59
2022/03/05 00:20:23;;;;;;;5.07;2.58;;;;;;;;;;5109091;28;20459;-59
2022/03/05 00:22:52;;;;;;;5.20;3.17;;;;;;;;;;5108880;28;20027;-59
2022/03/05 00:25:17;;;;;;;3.83;2.33;;;;;;;;;;5105596;28;20452;-59
2022/03/05 00:27:43;;;;;;;2.90;2.38;;;;;;;;;;5111991;28;20027;-59
2022/03/05 00:30:09;;;;;;;3.13;2.35;;;;;;;;;;5101493;28;20030;-59
2022/03/05 00:32:34;;;;;;;4.25;2.60;;;;;;;;;;5112332;28;20019;-59
2022/03/05 00:34:59;;;;;;;4.78;2.15;;;;;;;;;;5109191;28;20043;-59
2022/03/05 00:37:24;;;;;;;4.55;2.78;;;;;;;;;;5095851;28;20042;-59
2022/03/05 00:39:50;;;;;;;3.60;2.50;;;;;;;;;;5105060;28;20019;-59
2022/03/05 00:42:15;;;;;;;5.82;3.00;;;;;;;;;;5100185;28;20039;-59
2022/03/05 00:44:40;;;;;;;5.38;2.95;;;;;;;;;;5102078;28;20020;-58
2022/03/05 00:47:06;;;;;;;4.75;3.38;;;;;;;;;;5098006;28;20032;-58
2022/03/05 00:49:31;;;;;;;3.10;2.80;;;;;;;;;;5100786;28;20096;-59
2022/03/05 00:51:56;;;;;;;3.58;2.65;;;;;;;;;;5094980;28;20036;-59
2022/03/05 00:54:21;;;;;;;4.65;2.70;;;;;;;;;;5106897;28;20024;-59
2022/03/05 00:56:47;;;;;;;4.38;2.85;;;;;;;;;;5108667;28;20054;-59
2022/03/05 00:59:12;;;;;;;5.32;2.60;;;;;;;;;;5096209;28;20008;-58
2022/03/05 01:01:38;;;;;;;3.20;2.47;;;;;;;;;;5100858;28;20608;-59
2022/03/05 01:04:03;;;;;;;3.58;3.05;;;;;;;;;;5108717;28;20020;-59
2022/03/05 01:06:30;;;;;;;3.85;2.58;;;;;;;;;;5097939;28;20498;-55
2022/03/05 01:08:56;;;;;;;3.20;2.50;;;;;;;;;;5098169;28;20024;-59
2022/03/05 01:11:21;;;;;;;4.10;2.83;;;;;;;;;;5106823;28;20392;-59
2022/03/05 01:13:47;;;;;;;4.05;2.20;;;;;;;;;;5108666;28;20123;-59
2022/03/05 01:16:13;;;;;;;3.60;2.97;;;;;;;;;;5099640;28;20118;-59
2022/03/05 01:18:38;;;;;;;4.13;2.40;;;;;;;;;;5095058;28;20106;-59
2022/03/05 01:21:03;;;;;;;3.58;2.65;;;;;;;;;;5099227;28;20476;-59
2022/03/05 01:23:28;;;;;;;3.58;3.25;;;;;;;;;;5092031;28;20065;-57
2022/03/05 01:25:53;;;;;;;3.55;3.00;;;;;;;;;;5108407;28;20038;-59
2022/03/05 01:28:19;;;;;;;3.38;2.35;;;;;;;;;;5097929;28;20026;-59
2022/03/05 01:30:44;;;;;;;3.33;2.58;;;;;;;;;;5110279;28;20480;-59
2022/03/05 01:33:09;;;;;;;7.18;3.38;;;;;;;;;;5102641;28;20102;-59
2022/03/05 01:35:34;;;;;;;4.10;3.13;;;;;;;;;;5112351;28;20035;-60
2022/03/05 01:38:00;;;;;;;4.45;2.97;;;;;;;;;;5100217;28;20088;-61
2022/03/05 01:40:25;;;;;;;3.65;2.85;;;;;;;;;;5112394;27;20032;-60
2022/03/05 01:42:50;;;;;;;4.93;3.20;;;;;;;;;;5096014;28;20514;-60
2022/03/05 01:45:15;;;;;;;4.22;2.40;;;;;;;;;;5106298;28;20081;-60
2022/03/05 01:47:41;;;;;;;3.90;2.70;;;;;;;;;;5103771;28;20028;-60
2022/03/05 01:50:07;;;;;;;3.22;2.58;;;;;;;;;;5098263;28;20026;-60
2022/03/05 01:52:32;;;;;;;3.60;2.53;;;;;;;;;;5111172;28;20054;-60
2022/03/05 01:54:57;;;;;;;2.50;2.30;;;;;;;;;;5106148;28;20074;-60
2022/03/05 01:57:23;;;;;;;4.60;3.30;;;;;;;;;;5108255;28;20110;-60
2022/03/05 01:59:48;;;;;;;3.40;2.53;;;;;;;;;;5102984;28;20024;-60
2022/03/05 02:02:14;;;;;;;2.20;2.00;;;;;;;;;;5094576;28;20016;-60
2022/03/05 02:04:39;;;;;;;3.38;2.97;;;;;;;;;;5094694;28;20189;-60
2022/03/05 02:07:04;;;;;;;4.10;3.33;;;;;;;;;;5093265;28;20047;-60
2022/03/05 02:09:29;;;;;;;3.85;2.60;;;;;;;;;;5110824;28;20479;-60
2022/03/05 02:11:55;;;;;;;3.25;2.85;;;;;;;;;;5103779;28;20438;-60
2022/03/05 02:14:20;;;;;;;2.97;2.30;;;;;;;;;;5091588;28;20024;-60
2022/03/05 02:16:46;;;;;;;3.00;2.50;;;;;;;;;;5103532;28;20023;-60
2022/03/05 02:19:11;;;;;;;2.40;2.20;;;;;;;;;;5105251;28;20028;-60
2022/03/05 02:21:36;;;;;;;4.25;2.78;;;;;;;;;;5111196;28;20153;-60
2022/03/05 02:24:02;;;;;;;3.22;2.78;;;;;;;;;;5102744;28;20044;-60
2022/03/05 02:26:27;;;;;;;1.90;1.65;;;;;;;;;;5111336;28;20503;-60
2022/03/05 02:28:52;;;;;;;3.92;2.72;;;;;;;;;;5104706;28;20027;-60
2022/03/05 02:31:18;;;;;;;3.72;2.85;;;;;;;;;;5099394;28;20028;-59
2022/03/05 02:33:43;;;;;;;3.97;2.50;;;;;;;;;;5107069;28;20111;-60
2022/03/05 02:36:09;;;;;;;3.75;2.45;;;;;;;;;;5104394;28;20423;-60
2022/03/05 02:38:34;;;;;;;2.90;2.17;;;;;;;;;;5110329;28;20471;-60
2022/03/05 02:40:59;;;;;;;2.90;2.58;;;;;;;;;;5097555;28;20015;-60
2022/03/05 02:43:26;;;;;;;3.67;2.70;;;;;;;;;;5113951;28;20030;-60
2022/03/05 02:45:52;;;;;;;3.50;2.83;;;;;;;;;;5095175;28;20484;-60
2022/03/05 02:48:17;;;;;;;3.70;2.50;;;;;;;;;;5108212;28;20020;-60
2022/03/05 02:50:43;;;;;;;2.60;2.40;;;;;;;;;;5103370;28;20478;-60
2022/03/05 02:53:09;;;;;;;3.75;2.15;;;;;;;;;;5108907;28;20383;-60
2022/03/05 02:55:34;;;;;;;3.40;2.65;;;;;;;;;;5102831;28;20047;-60
2022/03/05 02:57:59;;;;;;;3.80;2.40;;;;;;;;;;5098021;28;20031;-60
2022/03/05 03:00:25;;;;;;;2.28;2.03;;;;;;;;;;5099749;28;20031;-60
2022/03/05 03:02:50;;;;;;;3.13;2.30;;;;;;;;;;5101748;28;20007;-60
2022/03/05 03:05:16;;;;;;;3.30;2.72;;;;;;;;;;5113270;28;20107;-60
2022/03/05 03:07:41;;;;;;;4.30;3.15;;;;;;;;;;5100456;28;20516;-60
2022/03/05 03:10:08;;;;;;;2.85;2.38;;;;;;;;;;5101869;28;20453;-60
2022/03/05 03:12:33;;;;;;;3.25;2.47;;;;;;;;;;5100832;28;20032;-60
2022/03/05 03:14:58;;;;;;;3.05;2.63;;;;;;;;;;5106189;28;20116;-60
2022/03/05 03:17:23;;;;;;;2.83;2.08;;;;;;;;;;5109615;28;20028;-60
2022/03/05 03:19:49;;;;;;;5.43;3.45;;;;;;;;;;5100755;28;20384;-59
2022/03/05 03:22:14;;;;;;;3.55;3.20;;;;;;;;;;5103889;28;20047;-60
2022/03/05 03:24:40;;;;;;;3.50;2.63;;;;;;;;;;5102876;28;20027;-60
2022/03/05 03:27:05;;;;;;;3.22;2.47;;;;;;;;;;5113818;28;20031;-60
2022/03/05 03:29:31;;;;;;;2.50;2.13;;;;;;;;;;5104418;28;20030;-60
2022/03/05 03:31:56;;;;;;;2.35;2.15;;;;;;;;;;5101648;28;20051;-60
2022/03/05 03:34:21;;;;;;;3.97;2.70;;;;;;;;;;5112638;28;20031;-59
2022/03/05 03:36:46;;;;;;;3.22;2.90;;;;;;;;;;5094804;28;20035;-60
2022/03/05 03:39:11;;;;;;;3.08;2.78;;;;;;;;;;5089802;28;20031;-60
2022/03/05 03:41:37;;;;;;;4.20;2.92;;;;;;;;;;5112147;28;20054;-60
2022/03/05 03:44:02;;;;;;;3.67;3.38;;;;;;;;;;5111164;28;20031;-59
2022/03/05 03:46:28;;;;;;;3.13;2.83;;;;;;;;;;5106552;28;20499;-58
2022/03/05 03:48:53;;;;;;;3.80;2.92;;;;;;;;;;5111174;28;20540;-60
2022/03/05 03:51:18;;;;;;;4.30;3.17;;;;;;;;;;5113740;28;20038;-59
2022/03/05 03:53:43;;;;;;;3.95;2.55;;;;;;;;;;5097634;28;20035;-60
2022/03/05 03:56:08;;;;;;;3.33;2.25;;;;;;;;;;5110193;28;20411;-60
2022/03/05 03:58:34;;;;;;;3.17;2.42;;;;;;;;;;5112166;28;20023;-60
2022/03/05 04:00:59;;;;;;;3.53;3.03;;;;;;;;;;5103061;28;20039;-60
2022/03/05 04:03:24;;;;;;;3.90;3.05;;;;;;;;;;5111826;28;20023;-60
2022/03/05 04:05:49;;;;;;;3.58;2.97;;;;;;;;;;5110563;28;20030;-59
2022/03/05 04:10:59;;;;;;;3.83;3.42;;;;;;;;;;5105640;28;20493;-60
2022/03/05 04:13:24;;;;;;;3.13;2.40;;;;;;;;;;5111651;28;20031;-60
2022/03/05 04:15:49;;;;;;;4.13;3.28;;;;;;;;;;5099061;28;20081;-60
2022/03/05 04:18:14;;;;;;;2.75;2.33;;;;;;;;;;5094743;28;20016;-60
2022/03/05 04:20:39;;;;;;;3.60;2.63;;;;;;;;;;5100854;28;20024;-60
2022/03/05 04:23:05;;;;;;;4.68;2.88;;;;;;;;;;5092122;28;20483;-60
2022/03/05 04:25:30;;;;;;;3.25;2.38;;;;;;;;;;5100051;28;20027;-60
2022/03/05 04:27:55;;;;;;;3.60;2.72;;;;;;;;;;5110891;28;20020;-60
2022/03/05 04:30:21;;;;;;;3.17;2.67;;;;;;;;;;5111152;28;20028;-60
2022/03/05 04:32:46;;;;;;;3.05;2.65;;;;;;;;;;5101582;28;20012;-60
2022/03/05 04:35:11;;;;;;;3.67;2.97;;;;;;;;;;5099009;28;20028;-59
2022/03/05 04:37:37;;;;;;;3.38;3.08;;;;;;;;;;5104582;28;20050;-60
2022/03/05 04:40:03;;;;;;;3.38;2.63;;;;;;;;;;5103025;28;20024;-60
2022/03/05 04:42:28;;;;;;;3.10;2.85;;;;;;;;;;5102070;28;20114;-61
2022/03/05 04:44:53;;;;;;;3.08;2.78;;;;;;;;;;5092767;28;20026;-61
2022/03/05 04:47:18;;;;;;;3.10;2.53;;;;;;;;;;5094982;28;20123;-61
2022/03/05 04:49:44;;;;;;;3.30;2.55;;;;;;;;;;5111066;28;20023;-61
2022/03/05 04:52:09;;;;;;;2.30;2.10;;;;;;;;;;5107388;28;20036;-61
2022/03/05 04:54:34;;;;;;;4.13;2.80;;;;;;;;;;5101104;28;20554;-61
2022/03/05 04:57:00;;;;;;;4.50;2.80;;;;;;;;;;5106817;28;20080;-60
2022/03/05 04:59:25;;;;;;;3.05;2.75;;;;;;;;;;5094799;28;20058;-60
2022/03/05 05:01:52;;;;;;;4.32;3.00;;;;;;;;;;5091984;28;20012;-60
2022/03/05 05:04:17;;;;;;;3.17;2.88;;;;;;;;;;5103345;28;20585;-60
2022/03/05 05:06:42;;;;;;;3.33;2.78;;;;;;;;;;5096085;28;20107;-61
2022/03/05 05:09:07;;;;;;;4.05;3.35;;;;;;;;;;5098286;28;20028;-54
2022/03/05 05:11:33;;;;;;;3.28;2.63;;;;;;;;;;5101770;28;20035;-60
2022/03/05 05:13:58;;;;;;;4.10;2.72;;;;;;;;;;5102587;28;20450;-60
2022/03/05 05:16:23;;;;;;;3.75;3.10;;;;;;;;;;5093915;28;20059;-60
2022/03/05 05:21:32;;;;;;;3.25;2.80;;;;;;;;;;5096404;28;20491;-60
2022/03/05 05:23:58;;;;;;;3.50;3.17;;;;;;;;;;5095190;28;20110;-56
2022/03/05 05:26:23;;;;;;;3.58;2.72;;;;;;;;;;5105045;28;20074;-60
2022/03/05 05:28:48;;;;;;;3.10;2.70;;;;;;;;;;5107953;28;20460;-59
2022/03/05 05:31:14;;;;;;;3.25;2.80;;;;;;;;;;5100350;28;20036;-60
2022/03/05 05:33:43;;;;;;;3.47;2.78;;;;;;;;;;5106035;28;20488;-60
2022/03/05 05:36:09;;;;;;;3.03;2.60;;;;;;;;;;5093601;28;20028;-60
2022/03/05 05:38:34;;;;;;;4.00;3.33;;;;;;;;;;5101441;28;20099;-60
2022/03/05 05:40:59;;;;;;;3.20;2.65;;;;;;;;;;5109506;28;20036;-59
2022/03/05 05:43:24;;;;;;;4.50;3.17;;;;;;;;;;5106897;28;20055;-60
2022/03/05 05:45:49;;;;;;;2.83;2.42;;;;;;;;;;5099200;28;20036;-60
2022/03/05 05:48:15;;;;;;;3.63;3.28;;;;;;;;;;5095358;28;20108;-60
2022/03/05 05:50:42;;;;;;;4.22;3.15;;;;;;;;;;5097160;28;20146;-60
2022/03/05 05:53:07;;;;;;;2.97;2.67;;;;;;;;;;5101012;28;20028;-60
2022/03/05 05:55:33;;;;;;;2.72;2.22;;;;;;;;;;5108236;28;20043;-60
2022/03/05 05:57:58;;;;;;;3.00;2.38;;;;;;;;;;5105092;28;20100;-58
2022/03/05 06:00:23;;;;;;;4.20;3.80;;;;;;;;;;5105882;28;20073;-60
2022/03/05 06:02:48;;;;;;;4.10;3.15;;;;;;;;;;5100748;28;20020;-60
2022/03/05 06:05:14;;;;;;;4.07;2.88;;;;;;;;;;5111458;28;20020;-60
2022/03/05 06:07:39;;;;;;;2.50;2.30;;;;;;;;;;5104588;28;20198;-60
2022/03/05 06:10:05;;;;;;;3.63;3.03;;;;;;;;;;5102750;28;20102;-60
2022/03/05 06:12:30;;;;;;;3.03;2.63;;;;;;;;;;5105109;28;20038;-60
2022/03/05 06:14:56;;;;;;;2.55;2.35;;;;;;;;;;5110668;28;20032;-60
2022/03/05 06:17:21;;;;;;;4.63;3.08;;;;;;;;;;5112036;28;20024;-60
2022/03/05 06:19:46;;;;;;;3.58;2.85;;;;;;;;;;5100153;28;20012;-60
2022/03/05 06:22:11;;;;;;;3.15;2.53;;;;;;;;;;5106783;28;20045;-60
2022/03/05 06:24:37;;;;;;;4.88;4.18;;;;;;;;;;5109234;28;20024;-60
2022/03/05 06:27:02;;;;;;;3.45;3.00;;;;;;;;;;5112388;28;20023;-60
2022/03/05 06:29:27;;;;;;;3.35;2.85;;;;;;;;;;5100630;28;20027;-60
2022/03/05 06:31:54;;;;;;;3.80;2.63;;;;;;;;;;5113922;28;20023;-60
2022/03/05 06:34:19;;;;;;;3.35;3.05;;;;;;;;;;5106394;28;20036;-60
2022/03/05 06:36:44;;;;;;;2.97;2.70;;;;;;;;;;5104241;28;20036;-60
2022/03/05 06:39:09;;;;;;;3.17;2.88;;;;;;;;;;5104161;28;20055;-60
2022/03/05 06:41:34;;;;;;;3.08;2.45;;;;;;;;;;5113348;28;20034;-61
2022/03/05 06:44:00;;;;;;;3.33;3.03;;;;;;;;;;5095668;28;20017;-60
2022/03/05 06:46:25;;;;;;;4.28;3.28;;;;;;;;;;5100793;28;20057;-61
2022/03/05 06:48:50;;;;;;;4.68;3.35;;;;;;;;;;5106490;28;20020;-61
2022/03/05 06:51:15;;;;;;;3.95;2.58;;;;;;;;;;5112343;28;20448;-61
2022/03/05 06:53:40;;;;;;;4.22;2.95;;;;;;;;;;5106389;28;20028;-60
2022/03/05 06:56:06;;;;;;;3.72;2.97;;;;;;;;;;5101723;28;20126;-63
2022/03/05 06:58:31;;;;;;;3.00;2.70;;;;;;;;;;5104287;28;20027;-60
2022/03/05 07:00:56;;;;;;;3.35;3.03;;;;;;;;;;5102961;28;20318;-60
2022/03/05 07:03:21;;;;;;;2.00;1.40;;;;;;;;;;5096975;28;20112;-60
2022/03/05 07:05:46;;;;;;;3.13;2.70;;;;;;;;;;5107740;28;20024;-60
2022/03/05 07:08:11;;;;;;;1.83;1.73;;;;;;;;;;5110522;28;20015;-60
2022/03/05 07:10:37;;;;;;;2.13;1.83;;;;;;;;;;5107954;28;20032;-60
2022/03/05 07:13:02;;;;;;;4.03;2.80;;;;;;;;;;5096448;28;20031;-60
2022/03/05 07:15:27;;;;;;;3.33;2.97;;;;;;;;;;5107762;28;20035;-57
2022/03/05 07:17:53;;;;;;;2.45;2.25;;;;;;;;;;5108388;28;20028;-59
2022/03/05 07:20:19;;;;;;;2.88;2.50;;;;;;;;;;5108055;27;20085;-60
2022/03/05 07:22:44;;;;;;;3.28;2.90;;;;;;;;;;5105460;28;20436;-60
2022/03/05 07:25:10;;;;;;;4.57;4.10;;;;;;;;;;5107263;28;20084;-60
2022/03/05 07:27:35;;;;;;;3.20;2.90;;;;;;;;;;5112156;28;20015;-60
2022/03/05 07:30:00;;;;;;;2.95;2.65;;;;;;;;;;5111461;28;20036;-60
2022/03/05 07:32:26;;;;;;;3.70;3.38;;;;;;;;;;5107522;28;20069;-60
2022/03/05 07:34:51;;;;;;;3.90;3.08;;;;;;;;;;5112099;28;20057;-60
2022/03/05 07:37:16;;;;;;;5.05;3.10;;;;;;;;;;5108431;28;20389;-60
2022/03/05 07:39:41;;;;;;;3.35;2.90;;;;;;;;;;5100521;28;20422;-60
2022/03/05 07:42:07;;;;;;;6.13;3.15;;;;;;;;;;5107797;28;20498;-60
2022/03/05 07:44:32;;;;;;;4.43;2.80;;;;;;;;;;5108737;28;20464;-58
2022/03/05 07:46:57;;;;;;;4.28;3.40;;;;;;;;;;5106352;28;20080;-60
2022/03/05 07:49:23;;;;;;;3.25;2.70;;;;;;;;;;5106560;28;20032;-60
2022/03/05 07:51:48;;;;;;;4.25;2.70;;;;;;;;;;5110652;28;20023;-59
2022/03/05 07:54:14;;;;;;;3.53;2.50;;;;;;;;;;5105873;28;20392;-60
2022/03/05 07:56:39;;;;;;;5.55;3.17;;;;;;;;;;5104638;28;20399;-59
2022/03/05 07:59:05;;;;;;;4.20;3.15;;;;;;;;;;5104460;28;20023;-60
2022/03/05 08:01:30;;;;;;;4.07;3.45;;;;;;;;;;5106734;27;20507;-60
2022/03/05 08:03:55;;;;;;;4.82;4.38;;;;;;;;;;5107983;28;20028;-60
2022/03/05 08:06:20;;;;;;;5.43;4.18;;;;;;;;;;5112156;28;20058;-60
2022/03/05 08:08:46;;;;;;;5.80;4.65;;;;;;;;;;5113181;28;20490;-60
2022/03/05 08:11:11;;;;;;;7.15;5.13;;;;;;;;;;5106203;28;20476;-57
2022/03/05 08:13:37;;;;;;;7.40;6.25;;;;;;;;;;5103829;28;20035;-60
2022/03/05 08:16:02;;;;;;;8.40;6.63;;;;;;;;;;5110488;28;20118;-59
2022/03/05 08:18:27;;;;;;;6.93;6.20;;;;;;;;;;5101932;28;20025;-60
2022/03/05 08:20:52;;;;;;;6.68;5.03;;;;;;;;;;5102624;28;20024;-60
2022/03/05 08:23:18;;;;;;;6.45;5.63;;;;;;;;;;5103472;28;20028;-60
2022/03/05 08:25:43;;;;;;;8.95;5.85;;;;;;;;;;5104090;28;20057;-59
2022/03/05 08:28:08;;;;;;;8.05;6.43;;;;;;;;;;5104384;28;20027;-60
2022/03/05 08:30:33;;;;;;;7.93;6.90;;;;;;;;;;5098961;28;20716;-60
2022/03/05 08:32:59;;;;;;;9.75;7.03;;;;;;;;;;5101843;28;20476;-59
2022/03/05 08:35:24;;;;;;;10.63;8.10;;;;;;;;;;5094553;28;20093;-57
2022/03/05 08:37:50;;;;;;;9.15;7.30;;;;;;;;;;5101001;28;20482;-60
2022/03/05 08:40:15;;;;;;;9.05;7.70;;;;;;;;;;5104495;28;20015;-59
2022/03/05 08:42:41;;;;;;;9.32;7.53;;;;;;;;;;5100354;28;20055;-59
2022/03/05 08:45:07;;;;;;;10.05;7.93;;;;;;;;;;5101899;28;20019;-59
2022/03/05 08:47:32;;;;;;;10.65;7.78;;;;;;;;;;5099592;28;20039;-59
2022/03/05 08:49:58;;;;;;;10.50;9.25;;;;;;;;;;5101877;28;20028;-59
2022/03/05 08:52:23;;;;;;;12.05;8.60;;;;;;;;;;5102132;28;20547;-59
2022/03/05 08:54:48;;;;;;;11.60;9.48;;;;;;;;;;5096410;28;20036;-60
2022/03/05 08:57:13;;;;;;;11.23;9.63;;;;;;;;;;5095602;28;20042;-60
2022/03/05 08:59:39;;;;;;;11.75;9.45;;;;;;;;;;5102083;28;20061;-60
2022/03/05 09:02:05;;;;;;;13.02;10.50;;;;;;;;;;5099922;28;20020;-61
2022/03/05 09:04:31;;;;;;;12.20;9.80;;;;;;;;;;5098260;28;20054;-58
2022/03/05 09:06:56;;;;;;;13.07;10.55;;;;;;;;;;5113056;28;20447;-59
2022/03/05 09:09:21;;;;;;;12.70;10.05;;;;;;;;;;5106065;28;20031;-58
2022/03/05 09:11:46;;;;;;;12.45;10.05;;;;;;;;;;5097952;28;20449;-59
2022/03/05 09:14:12;;;;;;;12.13;10.02;;;;;;;;;;5098996;28;20507;-59
2022/03/05 09:16:37;;;;;;;13.65;10.40;;;;;;;;;;5105918;28;20027;-59
2022/03/05 09:19:03;;;;;;;12.38;10.50;;;;;;;;;;5109690;28;20024;-59
2022/03/05 09:21:28;;;;;;;11.77;9.85;;;;;;;;;;5090439;28;20440;-59
2022/03/05 09:23:53;;;;;;;13.15;9.52;;;;;;;;;;5104748;28;20026;-59
2022/03/05 09:26:19;;;;;;;12.05;9.98;;;;;;;;;;5091854;28;20031;-59
2022/03/05 09:28:44;;;;;;;11.27;10.00;;;;;;;;;;5103129;28;20051;-59
2022/03/05 09:31:09;;;;;;;11.60;9.95;;;;;;;;;;5099062;28;20031;-58
2022/03/05 09:33:35;;;;;;;12.57;10.45;;;;;;;;;;5108293;28;20061;-61
2022/03/05 09:36:00;;;;;;;12.80;10.85;;;;;;;;;;5096791;28;20039;-60
2022/03/05 09:38:25;;;;;;;11.30;9.88;;;;;;;;;;5102959;28;20146;-59
2022/03/05 09:40:50;;;;;;;11.60;9.93;;;;;;;;;;5102777;28;20049;-59
2022/03/05 09:43:17;;;;;;;12.60;10.52;;;;;;;;;;5082299;28;20016;-60
2022/03/05 09:45:43;;;;;;;11.70;9.30;;;;;;;;;;5100930;28;20012;-60
2022/03/05 09:48:09;;;;;;;11.95;10.20;;;;;;;;;;5104108;28;20023;-59
2022/03/05 09:50:34;;;;;;;11.98;10.35;;;;;;;;;;5100732;28;20036;-59
2022/03/05 09:53:00;;;;;;;12.32;10.40;;;;;;;;;;5096892;28;20026;-59
2022/03/05 09:55:26;;;;;;;12.32;11.05;;;;;;;;;;5094538;28;20048;-60
2022/03/05 09:57:52;;;;;;;13.27;10.80;;;;;;;;;;5097874;28;20035;-60
2022/03/05 10:00:17;;;;;;;12.90;10.75;;;;;;;;;;5099803;28;20099;-59
2022/03/05 10:02:45;;;;;;;12.27;10.98;;;;;;;;;;5099845;28;20085;-59
2022/03/05 10:05:14;;;;;;;12.68;11.35;;;;;;;;;;5094388;28;20116;-58
2022/03/05 10:07:57;;;;;;;12.30;10.82;;;;;;;;;;5101989;28;20970;-59
2022/03/05 10:10:22;;;;;;;12.95;10.75;;;;;;;;;;5096387;28;20043;-58
2022/03/05 10:12:47;;;;;;;13.68;10.77;;;;;;;;;;5098916;28;20085;-60
2022/03/05 10:15:14;;;;;;;11.77;10.55;;;;;;;;;;5096557;28;20111;-60
2022/03/05 10:17:58;;;;;;;11.68;10.45;;;;;;;;;;5098189;28;20210;-61
2022/03/05 10:20:34;;;;;;;13.77;10.60;;;;;;;;;;5101144;28;20077;-60
2022/03/05 10:23:01;;;;;;;13.25;9.95;;;;;;;;;;5101066;28;20039;-60
2022/03/05 10:25:37;;;;;;;13.52;10.77;;;;;;;;;;5094507;28;20134;-60
2022/03/05 10:28:06;;;;;;;10.38;9.27;;;;;;;;;;5098812;28;20028;-60
2022/03/05 10:30:33;;;;;;;10.05;8.88;;;;;;;;;;5101172;28;20016;-59
2022/03/05 10:32:58;;;;;;;9.27;7.78;;;;;;;;;;5095034;28;20031;-59
2022/03/05 10:35:23;;;;;;;9.98;8.98;;;;;;;;;;5097608;28;20020;-59
2022/03/05 10:37:52;;;;;;;11.00;8.57;;;;;;;;;;5096857;28;20081;-59
2022/03/05 10:40:37;;;;;;;10.75;9.50;;;;;;;;;;5093139;28;20547;-60
2022/03/05 10:43:03;;;;;;;;;;;;;;;;;;5097096;28;20036;-59
2022/03/05 10:45:29;;;;;;;10.30;9.20;;;;;;;;;;5094938;28;21239;-61
2022/03/05 10:47:55;;;;;;;9.60;8.60;;;;;;;;;;5097860;28;20068;-60
2022/03/05 10:50:21;;;;;;;9.60;8.60;;;;;;;;;;5101176;28;20043;-60
2022/03/05 10:52:50;;;;;;;9.20;8.30;;;;;;;;;;5098578;28;20435;-61
2022/03/05 10:55:20;;;;;;;10.98;8.90;;;;;;;;;;5094243;28;20168;-60
2022/03/05 10:57:58;;;;;;;9.85;8.85;;;;;;;;;;5097098;28;20080;-60
2022/03/05 11:00:23;;;;;;;9.27;8.18;;;;;;;;;;5100973;28;20468;-60
2022/03/05 11:02:49;;;;;;;8.82;7.93;;;;;;;;;;5096646;28;20016;-61
2022/03/05 11:05:16;;;;;;;9.07;8.18;;;;;;;;;;5099241;28;20061;-60
2022/03/05 11:07:41;;;;;;;9.30;8.13;;;;;;;;;;5104152;28;20519;-60
2022/03/05 11:10:07;;;;;;;8.57;7.78;;;;;;;;;;5111381;28;20129;-60
2022/03/05 11:12:32;;;;;;;9.48;7.80;;;;;;;;;;5107138;28;20405;-60
2022/03/05 11:14:57;;;;;;;8.90;8.00;;;;;;;;;;5102980;28;20052;-60
2022/03/05 11:17:22;;;;;;;9.02;7.40;;;;;;;;;;5105909;28;20020;-60
2022/03/05 11:19:48;;;;;;;8.27;7.47;;;;;;;;;;5097597;28;20453;-60
2022/03/05 11:22:16;;;;;;;8.30;7.10;;;;;;;;;;5106289;28;20464;-60
2022/03/05 11:24:42;;;;;;;8.38;7.15;;;;;;;;;;5097297;28;20193;-60
2022/03/05 11:27:11;;;;;;;8.50;7.60;;;;;;;;;;5108938;28;20110;-59
2022/03/05 11:29:56;;;;;;;7.60;6.80;;;;;;;;;;5102730;28;20039;-60
2022/03/05 11:32:22;;;;;;;8.07;7.05;;;;;;;;;;5111203;28;20028;-60
2022/03/05 11:34:48;;;;;;;8.30;6.35;;;;;;;;;;5096086;28;20039;-61
2022/03/05 11:37:23;;;;;;;7.13;6.40;;;;;;;;;;5102280;28;20111;-60
2022/03/05 11:39:48;;;;;;;6.80;6.10;;;;;;;;;;5103752;28;20038;-60
2022/03/05 11:42:26;;;;;;;7.43;6.60;;;;;;;;;;5102075;28;20017;-60
2022/03/05 11:44:51;;;;;;;7.05;6.35;;;;;;;;;;5100627;28;20092;-60
2022/03/05 11:47:19;;;;;;;6.53;5.85;;;;;;;;;;5098805;28;20426;-60
2022/03/05 11:49:59;;;;;;;7.38;6.65;;;;;;;;;;5097035;28;20119;-60
2022/03/05 11:52:39;;;;;;;7.07;5.82;;;;;;;;;;5100973;28;20107;-60
2022/03/05 11:55:10;;;;;;;7.18;6.30;;;;;;;;;;5101622;28;20043;-60
2022/03/05 11:57:35;;;;;;;7.57;6.70;;;;;;;;;;5101659;28;20114;-60
2022/03/05 12:00:03;;;;;;;6.55;5.93;;;;;;;;;;5106432;28;20134;-60
2022/03/05 12:02:40;;;;;;;5.78;5.13;;;;;;;;;;5099991;28;20028;-60
2022/03/05 12:05:06;;;;;;;6.43;5.75;;;;;;;;;;5098475;28;20027;-60
2022/03/05 12:07:40;;;;;;;7.53;6.43;;;;;;;;;;5100420;28;20084;-59
2022/03/05 12:10:12;;;;;;;6.50;5.88;;;;;;;;;;5083336;28;20019;-60
2022/03/05 12:12:53;;;;;;;6.78;6.13;;;;;;;;;;5098176;28;20023;-60
2022/03/05 12:15:31;;;;;;;5.88;5.28;;;;;;;;;;5098966;28;20484;-60
2022/03/05 12:17:56;;;;;;;6.50;5.70;;;;;;;;;;5101307;28;20028;-60
2022/03/05 12:20:23;;;;;;;8.25;7.45;;;;;;;;;;5098108;28;20027;-59
2022/03/05 12:22:50;;;;;;;7.72;6.65;;;;;;;;;;5100248;28;20019;-60
2022/03/05 12:25:17;;;;;;;8.70;6.95;;;;;;;;;;5098303;28;20047;-60
2022/03/05 12:27:46;;;;;;;8.10;7.30;;;;;;;;;;5103882;28;20019;-60
2022/03/05 12:30:13;;;;;;;8.00;7.30;;;;;;;;;;5098903;28;20032;-60
2022/03/05 12:32:41;;;;;;;8.15;6.80;;;;;;;;;;5113703;27;20479;-60
2022/03/05 12:35:08;;;;;;;7.30;6.60;;;;;;;;;;5105098;27;20034;-60
2022/03/05 12:37:33;;;;;;;7.32;6.32;;;;;;;;;;5100562;27;20024;-60
2022/03/05 12:39:59;;;;;;;7.43;6.72;;;;;;;;;;5107886;27;20066;-61
2022/03/05 12:42:26;;;;;;;6.78;6.15;;;;;;;;;;5101254;28;20048;-60
2022/03/05 12:44:55;;;;;;;6.30;5.57;;;;;;;;;;5097220;28;20029;-60
2022/03/05 12:47:20;;;;;;;6.30;5.03;;;;;;;;;;5096949;28;20016;-60
2022/03/05 12:49:45;;;;;;;6.15;5.53;;;;;;;;;;5099251;28;20065;-59
2022/03/05 12:52:16;;;;;;;5.03;4.63;;;;;;;;;;5104204;28;20031;-60
2022/03/05 12:54:45;;;;;;;5.10;4.45;;;;;;;;;;5099072;28;20027;-60
2022/03/05 12:57:10;;;;;;;5.30;4.80;;;;;;;;;;5102196;28;20028;-60
2022/03/05 12:59:39;;;;;;;5.57;5.03;;;;;;;;;;5099575;28;20030;-60
2022/03/05 13:02:05;;;;;;;5.32;4.82;;;;;;;;;;5100304;28;20023;-60
2022/03/05 13:04:30;;;;;;;5.47;4.95;;;;;;;;;;5103804;28;20023;-60
2022/03/05 13:07:00;;;;;;;4.93;4.43;;;;;;;;;;5097936;28;20026;-60
2022/03/05 13:09:28;;;;;;;5.38;4.88;;;;;;;;;;5098274;28;20036;-60
2022/03/05 13:11:53;;;;;;;5.40;4.90;;;;;;;;;;5118032;27;20553;-60
2022/03/05 13:14:20;;;;;;;5.88;5.35;;;;;;;;;;5102557;28;20028;-60
2022/03/05 13:16:48;;;;;;;5.50;5.00;;;;;;;;;;5097473;28;20023;-60
2022/03/05 13:19:13;;;;;;;5.35;4.85;;;;;;;;;;5098489;28;20016;-60
2022/03/05 13:21:38;;;;;;;6.00;5.40;;;;;;;;;;5099016;28;20027;-60
2022/03/05 13:24:04;;;;;;;5.32;4.82;;;;;;;;;;5098488;28;20016;-60
2022/03/05 13:26:37;;;;;;;5.78;5.13;;;;;;;;;;5097538;28;20083;-59
2022/03/05 13:29:03;;;;;;;4.30;3.80;;;;;;;;;;5098257;28;20062;-61
2022/03/05 13:31:28;;;;;;;5.45;4.82;;;;;;;;;;5098882;28;20042;-60
2022/03/05 13:33:54;;;;;;;5.15;4.75;;;;;;;;;;5099643;28;20391;-60
2022/03/05 13:36:22;;;;;;;5.30;4.70;;;;;;;;;;5100624;28;20046;-60
2022/03/05 13:38:48;;;;;;;4.75;4.35;;;;;;;;;;5101278;28;20121;-60
2022/03/05 13:41:18;;;;;;;6.07;5.50;;;;;;;;;;5099306;28;20509;-60
2022/03/05 13:43:43;;;;;;;5.43;4.82;;;;;;;;;;5099184;28;20479;-59
2022/03/05 13:46:09;;;;;;;5.75;5.25;;;;;;;;;;5097658;28;20527;-61
2022/03/05 13:48:51;;;;;;;5.70;4.88;;;;;;;;;;5103878;28;20034;-58
2022/03/05 13:51:18;;;;;;;4.60;4.20;;;;;;;;;;5095868;28;20020;-59
2022/03/05 13:53:44;;;;;;;5.05;4.55;;;;;;;;;;5101495;28;20049;-59
2022/03/05 13:56:10;;;;;;;5.22;4.72;;;;;;;;;;5108572;28;20062;-56
2022/03/05 13:58:36;;;;;;;5.57;5.07;;;;;;;;;;5100870;28;20023;-60
2022/03/05 14:01:01;;;;;;;6.15;5.28;;;;;;;;;;5104288;28;20375;-59
2022/03/05 14:03:26;;;;;;;5.13;4.70;;;;;;;;;;5105294;28;20020;-59
2022/03/05 14:05:51;;;;;;;4.80;4.40;;;;;;;;;;5116827;28;20019;-59
2022/03/05 14:08:16;;;;;;;5.97;5.07;;;;;;;;;;5101609;28;20625;-59
2022/03/05 14:10:42;;;;;;;5.95;5.15;;;;;;;;;;5105485;28;20039;-60
2022/03/05 14:13:14;;;;;;;4.97;4.35;;;;;;;;;;5100131;28;20016;-60
2022/03/05 14:15:40;;;;;;;3.95;3.63;;;;;;;;;;5098988;28;20016;-57
2022/03/05 14:18:06;;;;;;;3.90;3.58;;;;;;;;;;5108120;28;20023;-60
2022/03/05 14:20:41;;;;;;;3.45;3.15;;;;;;;;;;5099738;28;20043;-60
2022/03/05 14:23:11;;;;;;;5.63;5.13;;;;;;;;;;5098235;28;20019;-59
2022/03/05 14:26:02;;;;;;;3.80;3.50;;;;;;;;;;5104818;28;20030;-60
2022/03/05 14:28:28;;;;;;;4.55;4.15;;;;;;;;;;5099789;28;20411;-60
2022/03/05 14:30:53;;;;;;;4.47;4.07;;;;;;;;;;5105641;28;20024;-60
2022/03/05 14:33:19;;;;;;;4.60;4.00;;;;;;;;;;5106025;28;20062;-61
2022/03/05 14:35:45;;;;;;;4.25;3.85;;;;;;;;;;5115083;27;20038;-60
2022/03/05 14:38:10;;;;;;;4.35;3.92;;;;;;;;;;5121187;27;20056;-60
2022/03/05 14:40:36;;;;;;;3.92;3.53;;;;;;;;;;5104691;28;20024;-60